Charleston, SC

4:22 AM EST en Enero 30, 2015 (GMT -0500)
Charleston Executive | Change Station
CLOSE
Current Station
Aeropuerto
Location: Charleston,
Altura: 16 ft
Estaciones meteorológicas cercanas

Alt 16 ft 32.70 °N, 80.01 °W | Updated 7 minutes ago

Muy nublado
Muy nublado
54 ° F
Sensación térmica 54 ° F
N
5
Viento Variable Viento desde SO

Hoy
Alta -- | Baja -- ° F
--% Posibilidad de precipitaciones
Ayer
Alta -- | Baja -- ° F
Precip. -- pul
7:16 AM 5:50 PM
Gibosa creciente, 81% visible
Presión 30.05 pul
Visibilidad 10.0 Millas
Nubes Muy nublado 6000 ft
Muy nublado 7500 ft
Nublado 11000 ft
Punto de rocío 46 ° F
Humedad 77%
Precipitaciones 0.00 pul
Espesor de la nieve No disponible.
UV 0 de una escala de 12
Polen 2.90 de una escala de 12
Calidad del aire No disponible.
Flu Activity No disponible.
METAR KJZI 300915Z AUTO 22004KT 10SM BKN060 BKN075 OVC110 12/08 A3005 RMK A02 P000

More Conditions Fewer Conditions

Presión 30.05 pul
Visibilidad 10.0 Millas
Nubes Muy nublado 6000 ft
Muy nublado 7500 ft
Nublado 11000 ft
Punto de rocío 46 ° F
Humedad 77%
Precipitaciones 0.00 pul
Espesor de la nieve No disponible.
UV 0 de una escala de 12
Polen 2.90 de una escala de 12
Calidad del aire No disponible.
Flu Activity No disponible.
METAR KJZI 300915Z AUTO 22004KT 10SM BKN060 BKN075 OVC110 12/08 A3005 RMK A02 P000

More Conditions Fewer Conditions

10-Day Weather Forecast

Almanac

Astronomía

Jan. 30, 2015 Salida Puesta
Hora real
Crepúsculo civil
Crepúsculo náutico
Crepúsculo astronómico
Luna
Horas de luz
Horas de luz
Tomorrow will be .
, % of the Moon is Illuminated

Extremos de hoy

Máximos del estado Bajos del estado

Community

WunderPhotos

Upload Photos

1,791,737 ¡fotos cargadas!

WunderBlogs® & News

Nearby

Calidad del aire

  Calidad del aire Índice AQ Contaminante
Not available.

Grosos de nieve

Estación Profundido Altura

Actividad de terremotos

Ciudad Distance Mag. Tiempo y dato
Magnitud mínima muestra es 2,5.

Temperaturas de aguas costeras

Lugar Temperatura

Estaciones meteorológicas cercanas